Terminal Aerodrome Forecast
Issued by NWS

Home | Current Version | Previous Version | Text Only | Print | Product List | Glossary On
Versions: 1 2 3 4 5 6 7 8 9 10 11 12 13 14 15 16 17 18 19 20 21
000
FTUS42 KMLB 271731
TAFSFB
TAF
KSFB 271731Z 2718/2818 01012G18KT P6SM OVC024
     FM280300 01010KT P6SM OVC012
     FM281500 05013G19KT P6SM VCSH OVC020=

USA.gov is the U.S. government's official web portal to all federal, state and local government web resources and services.